Time;durP1;ratioP1;P1;durP2;ratioP2;P2;SDS_P1;SDS_P2;PMS_P1;PMS_P2;Temp;Humidity;BMP_temperature;BMP_pressure;BME280_temperature;BME280_humidity;BME280_pressure;Samples;Min_cycle;Max_cycle;Signal;HPM_P1;HPM_P2
2024/02/08 00:00:49;;;;;;;;;;;;;;;22.76;42.55;99994.69;4215844;28;19924;-65
2024/02/08 00:02:51;;;;;;;;;;;;;;;22.80;42.17;99994.25;4216016;28;20014;-64
2024/02/08 00:04:53;;;;;;;;;;;;;;;22.83;42.70;99990.41;4215774;28;19938;-64
2024/02/08 00:06:54;;;;;;;;;;;;;;;22.85;42.34;99990.28;4215852;28;19920;-64
2024/02/08 00:08:56;;;;;;;;;;;;;;;22.85;42.59;99990.28;4214764;28;20524;-63
2024/02/08 00:10:58;;;;;;;;;;;;;;;22.87;42.54;99985.59;4215402;28;19924;-65
2024/02/08 00:12:59;;;;;;;;;;;;;;;22.86;42.24;99981.25;4215894;28;20014;-65
2024/02/08 00:15:01;;;;;;;;;;;;;;;22.86;42.23;99983.94;4215779;28;19920;-65
2024/02/08 00:17:02;;;;;;;;;;;;;;;22.85;42.48;99984.91;4215866;28;20031;-65
2024/02/08 00:19:04;;;;;;;;;;;;;;;22.84;42.29;99981.38;4215875;28;19920;-65
2024/02/08 00:21:09;;;;;;;;;;;;;;;22.85;42.40;99977.72;4216159;28;20334;-64
2024/02/08 00:23:12;;;;;;;;;;;;;;;22.85;42.16;99975.03;4215774;28;19951;-65
2024/02/08 00:25:14;;;;;;;;;;;;;;;22.88;42.17;99968.50;4215191;28;19920;-66
2024/02/08 00:27:18;;;;;;;;;;;;;;;22.89;42.20;99965.69;4215862;28;20340;-65
2024/02/08 00:29:25;;;;;;;;;;;;;;;22.89;42.17;99962.16;4215417;28;19985;-65
2024/02/08 00:31:27;;;;;;;;;;;;;;;22.89;42.57;99951.44;4215862;28;19920;-65
2024/02/08 00:33:28;;;;;;;;;;;;;;;22.92;42.46;99964.56;4215630;28;19988;-65
2024/02/08 00:35:30;;;;;;;;;;;;;;;22.92;42.37;99961.88;4215451;28;19920;-64
2024/02/08 00:37:31;;;;;;;;;;;;;;;22.91;42.39;99960.19;4215114;28;19920;-65
2024/02/08 00:39:33;;;;;;;;;;;;;;;22.90;42.22;99953.13;4215267;28;19946;-65
2024/02/08 00:41:36;;;;;;;;;;;;;;;22.88;42.03;99958.66;4215159;28;19994;-65
2024/02/08 00:43:41;;;;;;;;;;;;;;;22.87;42.59;99953.41;4215570;28;19920;-65
2024/02/08 00:45:42;;;;;;;;;;;;;;;22.85;42.05;99958.94;4215347;28;19945;-64
2024/02/08 00:47:44;;;;;;;;;;;;;;;22.83;42.68;99954.72;4215128;28;19926;-65
2024/02/08 00:49:48;;;;;;;;;;;;;;;22.84;42.32;99948.38;4215426;28;20298;-65
2024/02/08 00:51:49;;;;;;;;;;;;;;;22.86;42.15;99952.59;4215291;28;19965;-65
2024/02/08 00:53:51;;;;;;;;;;;;;;;22.87;42.16;99943.56;4214997;28;20389;-64
2024/02/08 00:55:52;;;;;;;;;;;;;;;22.87;42.23;99943.56;4215333;28;19946;-65
2024/02/08 00:57:54;;;;;;;;;;;;;;;22.88;42.46;99933.66;4215313;28;19920;-65
2024/02/08 00:59:56;;;;;;;;;;;;;;;22.89;42.39;99936.22;4215056;28;19935;-65
2024/02/08 01:01:58;;;;;;;;;;;;;;;22.90;42.26;99934.34;4215381;28;19923;-65
2024/02/08 01:03:59;;;;;;;;;;;;;;;22.88;42.27;99942.56;4215198;28;19973;-64
2024/02/08 01:06:02;;;;;;;;;;;;;;;22.84;42.32;99940.34;4213925;28;19960;-64
2024/02/08 01:08:04;;;;;;;;;;;;;;;22.82;42.44;99932.44;4214802;28;20263;-64
2024/02/08 01:10:07;;;;;;;;;;;;;;;22.83;42.24;99933.28;4214994;28;19920;-64
2024/02/08 01:12:09;;;;;;;;;;;;;;;22.83;42.06;99934.13;4215015;28;20321;-65
2024/02/08 01:14:12;;;;;;;;;;;;;;;22.84;42.34;99927.75;4215063;28;20014;-64
2024/02/08 01:16:14;;;;;;;;;;;;;;;22.83;42.38;99926.06;4214973;28;20003;-65
2024/02/08 01:18:17;;;;;;;;;;;;;;;22.87;42.48;99932.81;4214953;28;19975;-63
2024/02/08 01:20:22;;;;;;;;;;;;;;;22.87;42.08;99922.09;4214645;28;19958;-65
2024/02/08 01:22:24;;;;;;;;;;;;;;;22.92;42.32;99929.69;4214662;28;19920;-64
2024/02/08 01:24:28;;;;;;;;;;;;;;;22.92;42.22;99921.66;4214952;28;19919;-63
2024/02/08 01:26:31;;;;;;;;;;;;;;;22.93;42.38;99925.97;4214087;28;19920;-65
2024/02/08 01:28:33;;;;;;;;;;;;;;;22.92;42.31;99921.66;4214743;28;19930;-65
2024/02/08 01:30:38;;;;;;;;;;;;;;;22.93;42.19;99924.16;4214779;28;19942;-66
2024/02/08 01:32:40;;;;;;;;;;;;;;;22.93;42.12;99920.63;4214743;28;20435;-64
2024/02/08 01:34:44;;;;;;;;;;;;;;;22.94;42.19;99923.19;4214780;28;19920;-65
2024/02/08 01:36:49;;;;;;;;;;;;;;;22.90;42.22;99921.78;4214188;28;20439;-65
2024/02/08 01:38:51;;;;;;;;;;;;;;;22.85;42.13;99913.38;4214591;28;19920;-66
2024/02/08 01:40:55;;;;;;;;;;;;;;;22.85;42.19;99913.38;4214497;28;20399;-66
2024/02/08 01:42:59;;;;;;;;;;;;;;;22.82;42.36;99913.69;4214681;28;19920;-66
2024/02/08 01:45:21;;;;;;;;;;;;;;;22.84;42.22;99909.00;4214522;28;20005;-65
2024/02/08 01:47:22;;;;;;;;;;;;;;;22.84;42.17;99906.31;4214323;28;20290;-65
2024/02/08 01:49:26;;;;;;;;;;;;;;;22.87;42.16;99906.03;4214335;28;19920;-65
2024/02/08 01:51:30;;;;;;;;;;;;;;;22.89;42.29;99903.16;4214040;28;20003;-66
2024/02/08 01:53:32;;;;;;;;;;;;;;;22.89;42.10;99900.50;4214455;28;19999;-66
2024/02/08 01:55:34;;;;;;;;;;;;;;;22.88;42.02;99896.13;4214416;28;19955;-66
2024/02/08 01:57:36;;;;;;;;;;;;;;;22.89;42.09;99895.13;4214292;28;19927;-65
2024/02/08 01:59:39;;;;;;;;;;;;;;;22.88;41.97;99893.44;4214371;28;19920;-66
2024/02/08 02:01:45;;;;;;;;;;;;;;;22.87;41.93;99889.94;4214117;28;19919;-64
2024/02/08 02:03:48;;;;;;;;;;;;;;;22.86;42.04;99882.06;4214356;28;20308;-66
2024/02/08 02:05:50;;;;;;;;;;;;;;;22.84;42.38;99882.19;4213960;28;19920;-66
2024/02/08 02:07:52;;;;;;;;;;;;;;;22.83;42.07;99883.19;4214004;28;20021;-66
2024/02/08 02:09:54;;;;;;;;;;;;;;;22.83;42.00;99883.19;4214018;28;19963;-65
2024/02/08 02:12:01;;;;;;;;;;;;;;;22.84;42.22;99884.03;4213051;28;20352;-63
2024/02/08 02:14:04;;;;;;;;;;;;;;;22.84;42.01;99884.88;4214137;28;20037;-65
2024/02/08 02:16:06;;;;;;;;;;;;;;;22.86;42.30;99874.00;4213958;28;19920;-65
2024/02/08 02:18:09;;;;;;;;;;;;;;;22.88;42.20;99877.34;4212837;28;19973;-65
2024/02/08 02:20:12;;;;;;;;;;;;;;;22.79;42.55;99869.25;4213800;28;19943;-65
2024/02/08 02:22:15;;;;;;;;;;;;;;;22.84;42.43;99867.94;4213859;28;20002;-65
2024/02/08 02:24:24;;;;;;;;;;;;;;;22.86;42.33;99872.16;4214156;28;19920;-66
2024/02/08 02:26:27;;;;;;;;;;;;;;;22.87;42.36;99862.25;4214085;28;19955;-66
2024/02/08 02:28:29;;;;;;;;;;;;;;;22.83;42.22;99858.22;4213831;28;20383;-65
2024/02/08 02:30:31;;;;;;;;;;;;;;;22.84;42.10;99863.41;4213871;28;19971;-66
2024/02/08 02:32:32;;;;;;;;;;;;;;;22.85;42.34;99861.59;4213913;28;20019;-65
2024/02/08 02:34:34;;;;;;;;;;;;;;;22.73;42.33;99856.47;4213510;28;19924;-65
2024/02/08 02:36:36;;;;;;;;;;;;;;;22.78;42.21;99859.53;4213743;28;19973;-66
2024/02/08 02:38:41;;;;;;;;;;;;;;;22.80;42.36;99856.69;4216550;28;19919;-66
2024/02/08 02:40:42;;;;;;;;;;;;;;;22.81;42.25;99848.50;4217238;28;19956;-66
2024/02/08 02:42:44;;;;;;;;;;;;;;;22.83;42.22;99844.81;4217457;28;20042;-65
2024/02/08 02:44:46;;;;;;;;;;;;;;;22.82;42.04;99849.34;4217269;28;19966;-65
2024/02/08 02:46:49;;;;;;;;;;;;;;;22.83;42.32;99834.91;4216987;28;19948;-65
2024/02/08 02:48:51;;;;;;;;;;;;;;;22.82;41.99;99827.91;4217338;28;19920;-65
2024/02/08 02:50:53;;;;;;;;;;;;;;;22.87;41.97;99830.09;4216933;28;20012;-65
2024/02/08 02:52:56;;;;;;;;;;;;;;;22.86;42.31;99825.75;4217070;28;19920;-64
2024/02/08 02:54:58;;;;;;;;;;;;;;;22.87;41.98;99822.03;4217178;28;19947;-65
2024/02/08 02:57:00;;;;;;;;;;;;;;;22.83;42.03;99818.00;4217012;28;19922;-65
2024/02/08 02:59:03;;;;;;;;;;;;;;;22.72;42.35;99811.88;4217151;28;19919;-65
2024/02/08 03:01:05;;;;;;;;;;;;;;;22.75;42.14;99816.13;4216790;28;20382;-65
2024/02/08 03:03:07;;;;;;;;;;;;;;;22.76;41.98;99815.09;4217100;28;19965;-65
2024/02/08 03:05:09;;;;;;;;;;;;;;;22.74;42.23;99814.44;4216400;28;19920;-65
2024/02/08 03:07:12;;;;;;;;;;;;;;;22.67;42.50;99808.00;4216813;28;19927;-64
2024/02/08 03:09:17;;;;;;;;;;;;;;;22.65;42.29;99808.19;4216797;28;20452;-65
2024/02/08 03:11:20;;;;;;;;;;;;;;;22.69;42.25;99804.16;4216845;28;19920;-65
2024/02/08 03:13:23;;;;;;;;;;;;;;;22.73;42.31;99800.16;4216808;28;19927;-66
2024/02/08 03:15:24;;;;;;;;;;;;;;;22.71;42.34;99796.81;4216902;28;20303;-66
2024/02/08 03:17:26;;;;;;;;;;;;;;;22.71;42.51;99796.81;4216922;28;19981;-66
2024/02/08 03:19:35;;;;;;;;;;;;;;;22.72;42.19;99792.28;4216382;28;20469;-66
2024/02/08 03:21:40;;;;;;;;;;;;;;;22.67;42.18;99794.59;4216537;28;20417;-65
2024/02/08 03:23:43;;;;;;;;;;;;;;;22.71;42.23;99794.16;4216874;28;19947;-65
2024/02/08 03:25:44;;;;;;;;;;;;;;;22.70;42.50;99795.13;4216691;28;19958;-65
2024/02/08 03:27:51;;;;;;;;;;;;;;;22.66;42.26;99788.38;4216607;28;19973;-65
2024/02/08 03:29:53;;;;;;;;;;;;;;;22.70;42.38;99787.09;4216281;28;19942;-64
2024/02/08 03:31:55;;;;;;;;;;;;;;;22.68;42.46;99780.22;4216518;28;19927;-66
2024/02/08 03:33:57;;;;;;;;;;;;;;;22.66;42.68;99777.66;4216368;28;19920;-66
2024/02/08 03:35:59;;;;;;;;;;;;;;;22.57;42.54;99771.41;4216414;28;19920;-65
2024/02/08 03:38:01;;;;;;;;;;;;;;;22.61;42.40;99779.97;4216231;28;20298;-65
2024/02/08 03:40:04;;;;;;;;;;;;;;;22.63;42.25;99770.78;4216116;28;19920;-65
2024/02/08 03:42:05;;;;;;;;;;;;;;;22.65;42.62;99762.59;4215550;28;19926;-66
2024/02/08 03:44:07;;;;;;;;;;;;;;;22.68;42.55;99767.63;4215355;28;19920;-65
2024/02/08 03:46:08;;;;;;;;;;;;;;;22.71;42.46;99770.03;4215275;28;19926;-65
2024/02/08 03:48:10;;;;;;;;;;;;;;;22.71;42.53;99767.34;4214435;28;19940;-66
2024/02/08 03:50:14;;;;;;;;;;;;;;;22.70;42.53;99760.28;4215230;28;19923;-66
2024/02/08 03:52:18;;;;;;;;;;;;;;;22.71;42.64;99761.13;4215209;28;20402;-66
2024/02/08 03:54:19;;;;;;;;;;;;;;;22.68;42.20;99759.59;4215260;28;19927;-66
2024/02/08 03:56:26;;;;;;;;;;;;;;;22.70;42.55;99760.28;4215318;28;20298;-65
2024/02/08 03:58:29;;;;;;;;;;;;;;;22.71;42.41;99750.41;4215259;28;19951;-65
2024/02/08 04:00:33;;;;;;;;;;;;;;;22.71;42.30;99750.41;4215383;28;19920;-65
2024/02/08 04:02:35;;;;;;;;;;;;;;;22.71;42.43;99745.03;4214789;28;19930;-65
2024/02/08 04:04:50;;;;;;;;;;;;;;;22.72;42.46;99739.50;4215264;28;20610;-66
2024/02/08 04:07:14;;;;;;;;;;;;;;;22.70;42.45;99738.84;4215082;28;19920;-65
2024/02/08 04:09:33;;;;;;;;;;;;;;;22.61;42.81;99735.28;4215121;28;19924;-65
2024/02/08 04:53:57;;;;;;;;;;;;;;;22.66;42.39;99702.63;4228766;28;20293;-64
2024/02/08 04:55:58;;;;;;;;;;;;;;;22.68;42.64;99697.97;4228476;28;19955;-64
2024/02/08 04:58:00;;;;;;;;;;;;;;;22.67;42.83;99695.44;4228562;28;19924;-65
2024/02/08 05:00:27;;;;;;;;;;;;;;;22.66;42.65;99691.91;4228028;28;19935;-65
2024/02/08 05:02:31;;;;;;;;;;;;;;;22.65;42.76;99691.06;4228612;28;19999;-66
2024/02/08 05:04:35;;;;;;;;;;;;;;;22.57;42.77;99691.03;4228683;28;19924;-65
2024/02/08 05:06:37;;;;;;;;;;;;;;;22.61;42.43;99692.41;4228473;28;19927;-65
2024/02/08 05:08:41;;;;;;;;;;;;;;;22.56;43.23;99680.47;4228513;28;20479;-65
2024/02/08 05:10:44;;;;;;;;;;;;;;;22.56;42.79;99689.34;4228406;28;19924;-65
2024/02/08 05:12:47;;;;;;;;;;;;;;;22.62;42.90;99686.03;4228270;28;19924;-65
2024/02/08 05:14:49;;;;;;;;;;;;;;;22.68;42.78;99689.09;4227761;28;19931;-65
2024/02/08 05:16:54;;;;;;;;;;;;;;;22.62;43.03;99682.50;4228400;28;19931;-65
2024/02/08 05:18:56;;;;;;;;;;;;;;;22.66;42.79;99678.50;4228322;28;20274;-65
2024/02/08 05:20:58;;;;;;;;;;;;;;;22.68;42.75;99676.50;4228110;28;20261;-65
2024/02/08 05:23:00;;;;;;;;;;;;;;;22.69;42.71;99686.25;4228223;28;19966;-65
2024/02/08 05:25:02;;;;;;;;;;;;;;;22.61;42.89;99675.47;4228234;28;19931;-65
2024/02/08 05:27:03;;;;;;;;;;;;;;;22.55;42.89;99676.09;4228113;28;19931;-65
2024/02/08 05:29:08;;;;;;;;;;;;;;;22.59;42.59;99675.63;4227709;28;20413;-65
2024/02/08 05:31:09;;;;;;;;;;;;;;;22.61;42.73;99684.38;4228200;28;19963;-65
2024/02/08 05:33:11;;;;;;;;;;;;;;;22.63;42.74;99678.84;4227865;28;20393;-65
2024/02/08 05:35:19;;;;;;;;;;;;;;;22.67;42.59;99676.69;4228172;28;19928;-65
2024/02/08 05:37:25;;;;;;;;;;;;;;;22.67;42.46;99676.69;4227839;28;19924;-65
2024/02/08 05:39:28;;;;;;;;;;;;;;;22.65;43.00;99671.50;4227769;28;19946;-63
2024/02/08 05:41:33;;;;;;;;;;;;;;;22.60;42.82;99668.41;4238731;28;19923;-64
2024/02/08 05:43:47;;;;;;;;;;;;;;;22.61;43.09;99672.78;4244571;28;19923;-66
2024/02/08 05:45:51;;;;;;;;;;;;;;;22.64;42.58;99675.16;4244835;28;19924;-65
2024/02/08 05:47:53;;;;;;;;;;;;;;;22.63;42.61;99673.47;4244666;27;20368;-65
2024/02/08 05:49:54;;;;;;;;;;;;;;;22.65;42.69;99675.00;4244800;28;19924;-66
2024/02/08 05:52:05;;;;;;;;;;;;;;;22.66;42.47;99675.81;4242430;28;19963;-65
2024/02/08 05:54:08;;;;;;;;;;;;;;;22.65;42.47;99676.84;4233184;28;19934;-65
2024/02/08 05:56:10;;;;;;;;;;;;;;;22.65;42.83;99666.97;4233273;28;19966;-64
2024/02/08 05:58:16;;;;;;;;;;;;;;;22.69;42.75;99669.34;4214998;28;19924;-65
2024/02/08 06:00:36;;;;;;;;;;;;;;;22.69;42.94;99672.00;4233096;28;19928;-66
2024/02/08 06:02:39;;;;;;;;;;;;;;;22.69;42.73;99670.16;4233137;28;19976;-65
2024/02/08 06:04:49;;;;;;;;;;;;;;;22.72;42.72;99669.81;4233360;28;19924;-65
2024/02/08 06:07:05;;;;;;;;;;;;;;;22.72;42.73;99669.00;4232920;28;19959;-65
2024/02/08 06:09:10;;;;;;;;;;;;;;;22.67;42.86;99677.50;4233110;28;19966;-65
2024/02/08 06:11:23;;;;;;;;;;;;;;;22.69;42.86;99678.19;4232996;28;19924;-65
2024/02/08 06:13:26;;;;;;;;;;;;;;;22.70;42.51;99674.53;4232552;28;19924;-66
2024/02/08 06:15:33;;;;;;;;;;;;;;;22.65;42.96;99676.84;4232996;28;19977;-65
2024/02/08 06:17:37;;;;;;;;;;;;;;;22.68;42.82;99671.16;4232988;28;19951;-65
2024/02/08 06:19:50;;;;;;;;;;;;;;;22.69;42.87;99675.53;4232885;28;19924;-66
2024/02/08 06:21:57;;;;;;;;;;;;;;;22.71;42.63;99673.53;4232966;28;19923;-67
2024/02/08 06:24:14;;;;;;;;;;;;;;;22.70;42.66;99671.84;4233103;28;20400;-65
2024/02/08 06:28:23;;;;;;;;;;;;;;;22.69;42.89;99663.97;4232518;28;20413;-64
2024/02/08 06:30:26;;;;;;;;;;;;;;;22.66;42.88;99662.41;4232803;28;19938;-65
2024/02/08 06:34:47;;;;;;;;;;;;;;;22.72;42.67;99663.63;4232730;28;19923;-66
2024/02/08 06:36:58;;;;;;;;;;;;;;;22.73;42.72;99663.47;4232501;28;19923;-66
2024/02/08 06:39:20;;;;;;;;;;;;;;;22.73;42.59;99663.47;4232464;28;19992;-66
2024/02/08 06:41:51;;;;;;;;;;;;;;;22.77;42.54;99653.25;4231955;28;20002;-64
2024/02/08 06:44:42;;;;;;;;;;;;;;;22.70;42.49;99665.63;4232368;28;19989;-64
2024/02/08 06:46:39;;;;;;;;;;;;;;;22.72;42.58;99656.41;4232093;28;19951;-64
2024/02/08 07:37:13;;;;;;;;;;;;;;;22.74;42.62;99656.28;4232633;28;19927;-65
2024/02/08 07:37:59;;;;;;;;;;;;;;;22.52;42.40;99649.59;4231676;28;19932;-66
2024/02/08 07:40:18;;;;;;;;;;;;;;;22.55;42.26;99652.81;4231310;28;19927;-66
2024/02/08 07:42:29;;;;;;;;;;;;;;;22.49;42.25;99653.44;4231663;28;19927;-66
2024/02/08 07:44:30;;;;;;;;;;;;;;;22.52;42.12;99645.09;4231778;28;19970;-66
2024/02/08 07:46:40;;;;;;;;;;;;;;;22.52;41.70;99642.44;4214276;28;19966;-66
2024/02/08 07:48:44;;;;;;;;;;;;;;;22.50;42.01;99639.06;4231462;28;19924;-66
2024/02/08 07:50:47;;;;;;;;;;;;;;;22.55;41.64;99638.59;4231519;28;19969;-66
2024/02/08 07:52:57;;;;;;;;;;;;;;;22.47;41.95;99637.53;4231675;28;20295;-66
2024/02/08 07:55:14;;;;;;;;;;;;;;;22.47;42.06;99637.53;4231041;28;19931;-66
2024/02/08 07:57:24;;;;;;;;;;;;;;;22.46;42.14;99629.66;4231584;28;19923;-66
2024/02/08 07:59:26;;;;;;;;;;;;;;;22.47;42.22;99632.19;4231328;28;19930;-66
2024/02/08 08:01:32;;;;;;;;;;;;;;;22.51;41.89;99632.72;4231393;28;20355;-65
2024/02/08 08:03:35;;;;;;;;;;;;;;;22.58;41.80;99640.97;4231305;28;19931;-65
2024/02/08 08:05:44;;;;;;;;;;;;;;;22.53;41.77;99627.19;4231240;28;19923;-65
2024/02/08 08:07:46;;;;;;;;;;;;;;;22.51;41.88;99624.66;4231123;28;20002;-65
2024/02/08 08:10:08;;;;;;;;;;;;;;;22.56;41.63;99627.69;4231159;28;19923;-64
2024/02/08 08:12:18;;;;;;;;;;;;;;;22.48;42.15;99638.41;4231360;28;19951;-65
2024/02/08 08:17:07;;;;;;;;;;;;;;;22.16;42.60;99635.31;4230866;28;19927;-66
2024/02/08 08:19:08;;;;;;;;;;;;;;;22.01;42.98;99632.34;4231060;28;19924;-64
2024/02/08 08:21:25;;;;;;;;;;;;;;;22.12;42.73;99628.56;4231228;28;19924;-65
2024/02/08 08:23:32;;;;;;;;;;;;;;;22.23;42.55;99632.00;4230804;28;20316;-64
2024/02/08 08:28:29;;;;;;;;;;;;;;;22.35;42.18;99628.06;4231370;28;20030;-64
2024/02/08 08:30:38;;;;;;;;;;;;;;;22.29;42.24;99616.13;4231185;28;19924;-65
2024/02/08 08:37:02;;;;;;;;;;;;;;;22.02;42.54;99617.13;4230607;28;20335;-65
2024/02/08 08:41:25;;;;;;;;;;;;;;;22.20;42.37;99608.22;4230624;28;19930;-66
2024/02/08 08:43:27;;;;;;;;;;;;;;;22.06;42.44;99610.47;4230912;28;19946;-65
2024/02/08 08:45:29;;;;;;;;;;;;;;;22.00;42.84;99616.44;4230745;28;19988;-62
2024/02/08 08:47:30;;;;;;;;;;;;;;;22.13;42.53;99605.34;4227903;28;19924;-64
2024/02/08 08:49:39;;;;;;;;;;;;;;;21.96;43.01;99613.22;4218987;28;19963;-67
2024/02/08 08:51:43;;;;;;;;;;;;;;;21.89;43.16;99606.00;4230115;28;19931;-65
2024/02/08 08:53:47;;;;;;;;;;;;;;;21.89;42.98;99609.50;4226822;28;19928;-66
2024/02/08 08:55:50;;;;;;;;;;;;;;;21.99;43.11;99602.22;4214162;28;20427;-65
2024/02/08 08:58:01;;;;;;;;;;;;;;;21.92;43.01;99603.84;4213885;28;20019;-68
2024/02/08 09:00:09;;;;;;;;;;;;;;;21.78;43.16;99605.22;4214054;28;19969;-64
2024/02/08 09:02:10;;;;;;;;;;;;;;;21.86;43.12;99607.16;4213719;28;19924;-63
2024/02/08 09:04:31;;;;;;;;;;;;;;;21.90;43.38;99607.69;4214858;28;19924;-61
2024/02/08 09:06:33;;;;;;;;;;;;;;;21.79;43.48;99603.41;4230351;28;19924;-61
2024/02/08 09:08:42;;;;;;;;;;;;;;;21.92;42.90;99600.31;4230840;28;19976;-61
2024/02/08 09:10:43;;;;;;;;;;;;;;;21.82;43.05;99598.59;4230789;28;19931;-61
2024/02/08 09:12:59;;;;;;;;;;;;;;;21.83;43.25;99594.88;4213371;28;19931;-61
2024/02/08 09:15:19;;;;;;;;;;;;;;;21.82;43.34;99598.59;4230602;28;19930;-62
2024/02/08 09:17:25;;;;;;;;;;;;;;;21.75;43.61;99608.22;4212692;28;19924;-61
2024/02/08 09:19:32;;;;;;;;;;;;;;;21.58;43.78;99587.66;4230596;28;20433;-61
2024/02/08 09:21:39;;;;;;;;;;;;;;;21.74;43.56;99586.94;4230110;28;19963;-61
2024/02/08 09:23:45;;;;;;;;;;;;;;;21.72;43.48;99597.81;4230472;28;19924;-60
2024/02/08 09:25:53;;;;;;;;;;;;;;;21.43;44.08;99590.84;4230477;28;20311;-60
2024/02/08 09:28:05;;;;;;;;;;;;;;;21.42;43.96;99583.81;4231977;28;20324;-61
2024/02/08 09:30:13;;;;;;;;;;;;;;;21.62;43.66;99583.69;4233894;28;19934;-61
2024/02/08 09:34:37;;;;;;;;;;;;;;;21.48;44.21;99585.03;4233759;28;19924;-61
2024/02/08 09:36:43;;;;;;;;;;;;;;;21.30;44.22;99569.84;4233209;28;20311;-61
2024/02/08 09:38:50;;;;;;;;;;;;;;;21.28;44.28;99579.00;4233304;28;19928;-61
2024/02/08 09:40:52;;;;;;;;;;;;;;;21.21;44.68;99571.56;4233578;28;19963;-61
2024/02/08 09:42:56;;;;;;;;;;;;;;;21.30;44.56;99569.84;4233655;28;19932;-61
2024/02/08 09:45:18;;;;;;;;;;;;;;;21.21;44.68;99576.91;4233616;28;20412;-62
2024/02/08 09:47:25;;;;;;;;;;;;;;;21.37;44.53;99570.06;4233513;28;20453;-61
2024/02/08 09:49:34;;;;;;;;;;;;;;;21.33;44.59;99572.19;4233147;28;19923;-61
2024/02/08 09:51:40;;;;;;;;;;;;;;;20.97;45.22;99580.16;4233301;28;19992;-61
2024/02/08 09:53:51;;;;;;;;;;;;;;;20.87;45.68;99566.88;4233352;28;20011;-61
2024/02/08 09:55:57;;;;;;;;;;;;;;;20.94;45.47;99574.31;4233546;28;19924;-60
2024/02/08 09:58:04;;;;;;;;;;;;;;;20.89;45.35;99556.88;4233488;28;19927;-61
2024/02/08 10:00:07;;;;;;;;;;;;;;;20.78;45.41;99564.25;4233173;28;19930;-61
2024/02/08 10:02:24;;;;;;;;;;;;;;;20.94;45.45;99553.75;4231756;28;19924;-61
2024/02/08 10:04:30;;;;;;;;;;;;;;;21.18;44.71;99555.84;4221552;28;19924;-62
2024/02/08 10:06:39;;;;;;;;;;;;;;;21.13;44.75;99557.28;4232722;28;19959;-63
2024/02/08 10:08:53;;;;;;;;;;;;;;;21.12;44.65;99547.59;4229872;28;19930;-62
2024/02/08 10:13:26;;;;;;;;;;;;;;;21.31;44.74;99538.56;4230499;28;19924;-62
2024/02/08 10:15:44;;;;;;;;;;;;;;;21.37;44.46;99540.63;4232602;28;19928;-62
2024/02/08 10:17:53;;;;;;;;;;;;;;;21.42;44.52;99549.03;4231625;28;19924;-62
2024/02/08 10:20:32;;;;;;;;;;;;;;;21.43;44.17;99529.31;4231905;28;20300;-62
2024/02/08 10:22:33;;;;;;;;;;;;;;;21.48;44.25;99540.41;4231928;28;20018;-62
2024/02/08 10:26:19;;;;;;;;;;;;;;;21.51;44.05;99540.09;4231929;28;20423;-62
2024/02/08 10:27:06;;;;;;;;;;;;;;;21.50;44.54;99535.72;4227981;28;20019;-62
2024/02/08 10:29:14;;;;;;;;;;;;;;;21.54;44.62;99522.88;4224887;28;19924;-60
2024/02/08 10:31:24;;;;;;;;;;;;;;;21.58;44.44;99512.75;4224527;28;20006;-61
2024/02/08 10:33:35;;;;;;;;;;;;;;;21.62;44.11;99516.81;4223098;28;19963;-63
2024/02/08 10:35:40;;;;;;;;;;;;;;;21.58;44.53;99505.59;4226676;28;19924;-62
2024/02/08 10:37:53;;;;;;;;;;;;;;;21.60;43.93;99502.75;4232185;28;19924;-62
2024/02/08 10:39:59;;;;;;;;;;;;;;;21.59;44.28;99512.59;4231410;28;19928;-62
2024/02/08 10:42:01;;;;;;;;;;;;;;;21.55;43.83;99501.31;4227098;28;19924;-62
2024/02/08 10:44:17;;;;;;;;;;;;;;;21.55;44.15;99516.56;4217500;28;19924;-62
2024/02/08 10:46:19;;;;;;;;;;;;;;;21.60;43.97;99513.44;4222246;28;20019;-61
2024/02/08 10:48:22;;;;;;;;;;;;;;;21.61;44.06;99507.94;4228309;28;19924;-61
2024/02/08 10:50:27;;;;;;;;;;;;;;;21.63;43.85;99499.75;4228571;28;20010;-62
2024/02/08 10:52:33;;;;;;;;;;;;;;;21.66;43.95;99502.13;4228105;28;20026;-62
2024/02/08 10:54:48;;;;;;;;;;;;;;;21.67;43.67;99498.44;4226070;28;20345;-62
2024/02/08 10:57:06;;;;;;;;;;;;;;;21.69;43.63;99496.47;4223936;28;20010;-61
2024/02/08 10:59:09;;;;;;;;;;;;;;;21.70;43.62;99492.75;4224339;28;19924;-64
2024/02/08 11:01:32;;;;;;;;;;;;;;;21.69;43.60;99485.75;4230989;28;19959;-63
2024/02/08 11:03:36;;;;;;;;;;;;;;;21.69;43.38;99483.09;4227890;28;20016;-62
2024/02/08 11:07:56;;;;;;;;;;;;;;;21.67;43.81;99469.84;4221105;28;20369;-61
2024/02/08 11:09:59;;;;;;;;;;;;;;;21.68;43.63;99465.34;4226057;28;20350;-62
2024/02/08 11:12:06;;;;;;;;;;;;;;;21.71;43.21;99470.38;4228702;28;20319;-63
2024/02/08 11:14:09;;;;;;;;;;;;;;;21.71;43.14;99467.69;4230779;28;19930;-63
2024/02/08 11:16:21;;;;;;;;;;;;;;;21.73;43.31;99470.22;4230879;28;19934;-63
2024/02/08 11:18:33;;;;;;;;;;;;;;;21.74;43.40;99442.44;4229077;28;19946;-63
2024/02/08 11:20:57;;;;;;;;;;;;;;;21.75;43.23;99445.00;4229501;28;19927;-63
2024/02/08 11:23:12;;;;;;;;;;;;;;;21.78;43.17;99433.13;4214968;28;20040;-63
2024/02/08 11:25:20;;;;;;;;;;;;;;;21.80;43.40;99428.44;4215071;28;19931;-62
2024/02/08 11:27:27;;;;;;;;;;;;;;;21.79;43.21;99430.28;4219609;28;19969;-61
2024/02/08 11:29:29;;;;;;;;;;;;;;;21.76;43.31;99425.22;4230748;28;19924;-63
2024/02/08 11:31:41;;;;;;;;;;;;;;;21.74;43.57;99418.38;4231330;28;19962;-64
2024/02/08 11:33:43;;;;;;;;;;;;;;;21.73;43.09;99409.50;4231565;28;19992;-62
2024/02/08 11:35:54;;;;;;;;;;;;;;;21.70;43.61;99412.50;4229989;28;20001;-63
2024/02/08 11:37:56;;;;;;;;;;;;;;;21.75;42.89;99414.69;4231363;28;19977;-63
2024/02/08 11:39:59;;;;;;;;;;;;;;;21.73;43.25;99398.81;4230682;28;19931;-62
2024/02/08 11:42:16;;;;;;;;;;;;;;;21.67;42.93;99407.47;4225644;27;20420;-63
2024/02/08 11:44:21;;;;;;;;;;;;;;;21.72;42.93;99409.69;4248558;27;20356;-63
2024/02/08 11:46:23;;;;;;;;;;;;;;;21.77;43.04;99393.97;4248207;27;19930;-64
2024/02/08 11:48:26;;;;;;;;;;;;;;;21.79;42.77;99392.81;4248448;27;19923;-62
2024/02/08 11:50:36;;;;;;;;;;;;;;;21.81;42.86;99384.63;4232216;27;19931;-62
2024/02/08 11:52:39;;;;;;;;;;;;;;;21.89;42.45;99387.34;4224967;28;19931;-63
2024/02/08 11:54:41;;;;;;;;;;;;;;;21.86;42.27;99390.34;4222778;28;19978;-62
2024/02/08 11:56:44;;;;;;;;;;;;;;;21.81;42.63;99382.78;4214741;28;19924;-61
2024/02/08 11:58:47;;;;;;;;;;;;;;;21.81;42.35;99388.16;4230317;28;19984;-63
2024/02/08 12:00:50;;;;;;;;;;;;;;;21.81;42.71;99387.28;4227956;28;20348;-63
2024/02/08 12:02:58;;;;;;;;;;;;;;;21.81;42.50;99380.13;4211274;28;19928;-62
2024/02/08 12:05:01;;;;;;;;;;;;;;;21.79;42.77;99379.44;4229258;28;19931;-62
2024/02/08 12:07:04;;;;;;;;;;;;;;;21.78;42.69;99375.06;4229894;28;19955;-63
2024/02/08 12:09:06;;;;;;;;;;;;;;;21.79;43.22;99367.91;4229627;28;20018;-62
2024/02/08 12:11:10;;;;;;;;;;;;;;;21.74;43.41;99373.72;4215468;28;19924;-64
2024/02/08 12:13:12;;;;;;;;;;;;;;;21.76;43.33;99362.84;4221040;27;20022;-62
2024/02/08 12:15:17;;;;;;;;;;;;;;;21.76;43.46;99363.69;4225364;28;19931;-64
2024/02/08 12:17:22;;;;;;;;;;;;;;;21.77;43.80;99351.97;4222246;28;20371;-64
2024/02/08 12:19:25;;;;;;;;;;;;;;;21.80;43.70;99346.31;4227122;28;19939;-65
2024/02/08 12:21:27;;;;;;;;;;;;;;;21.84;43.74;99354.88;4226557;28;19942;-67
2024/02/08 12:23:31;;;;;;;;;;;;;;;21.80;43.83;99348.13;4226977;28;19924;-62
2024/02/08 12:25:34;;;;;;;;;;;;;;;21.82;44.26;99349.69;4229349;28;19959;-65
2024/02/08 12:27:36;;;;;;;;;;;;;;;21.85;44.32;99346.66;4229364;28;19924;-63
2024/02/08 12:29:41;;;;;;;;;;;;;;;21.88;44.17;99350.84;4227289;28;20011;-64
2024/02/08 12:31:45;;;;;;;;;;;;;;;21.91;43.80;99355.91;4226967;28;19928;-63
2024/02/08 12:33:50;;;;;;;;;;;;;;;21.89;43.67;99346.34;4227794;28;19930;-64
2024/02/08 12:35:54;;;;;;;;;;;;;;;21.91;43.49;99338.97;4227117;28;19924;-64
2024/02/08 12:37:58;;;;;;;;;;;;;;;21.92;43.58;99336.16;4229290;28;20007;-63
2024/02/08 12:40:00;;;;;;;;;;;;;;;21.93;43.76;99329.78;4218968;28;20372;-64
2024/02/08 12:42:04;;;;;;;;;;;;;;;21.97;43.96;99325.81;4223441;28;19924;-59
2024/02/08 12:44:07;;;;;;;;;;;;;;;21.96;43.92;99321.44;4213518;28;19932;-66
2024/02/08 12:46:09;;;;;;;;;;;;;;;21.98;44.08;99323.94;4229450;28;19923;-69
2024/02/08 12:48:15;;;;;;;;;;;;;;;21.98;44.25;99313.25;4224013;28;19957;-66